Adrian, GA

3:12 AM EST on December 06, 2016 (GMT -0500)
Emanuel County | | Change Station

Elev 328 ft 32.61 °N, 82.37 °W | Updated 17 minutes ago

Light Rain
Light Rain
59 °F
Feels Like 59 °F
N
9
Wind Variable Wind from ESE

Today
High -- | Low -- °F
--% Chance of Precip.
Yesterday
High -- | Low -- °F
Precip. -- in
Pressure 29.80 in
Visibility 10.0 miles
Clouds Mostly Cloudy 3500 ft
Mostly Cloudy 6000 ft
Mostly Cloudy 10000 ft
Dew Point 59 °F
Humidity 100%
Rainfall 0.00 in
Snow Depth Not available.
7:18 AM 5:24 PM
Waxing Crescent, 39% visible
METAR KSBO 060755Z AUTO 12008KT 10SM -RA BKN035 BKN060 BKN100 15/15 A2980 RMK AO2
Pressure 29.80 in
Visibility 10.0 miles
Clouds Mostly Cloudy 3500 ft
Mostly Cloudy 6000 ft
Mostly Cloudy 10000 ft
Dew Point 59 °F
Humidity 100%
Rainfall 0.00 in
Snow Depth Not available.
7:18 AM 5:24 PM
Waxing Crescent, 39% visible
METAR KSBO 060755Z AUTO 12008KT 10SM -RA BKN035 BKN060 BKN100 15/15 A2980 RMK AO2

10-Day Weather Forecast

Almanac

Astronomy

Dec. 06, 2016 Rise Set
Actual Time
Civil Twilight
Nautical Twilight
Astronomical Twilight
Moon
Length of Visible Light
Length of Day
Tomorrow will be .
, % of the Moon is Illuminated

Today's Extremes

State Highs State Lows

Community

WunderPhotos

Upload Photos

1,955,935 photos uploaded!

WunderBlog® & News

Nearby

Air Quality

  Air Quality AQ Index Pollutant
Not available.

Snow Depth

Station Depth Elevation

Earthquake Activity

City Distance Mag. Time & Date
Minimum magnitude displayed is 2.5.

Coastal Water Temperatures

Place Temperature

Stations

Nearby Weather Stations

Station Location Temp. Windchill Dew Point Humidity Wind Precip. Elev Updated Type
                   

Watches & Warnings

There are currently no watches in effect.